Time;durP1;ratioP1;P1;durP2;ratioP2;P2;SDS_P1;SDS_P2;PMS_P1;PMS_P2;Temp;Humidity;BMP_temperature;BMP_pressure;BME280_temperature;BME280_humidity;BME280_pressure;Samples;Min_cycle;Max_cycle;Signal;HPM_P1;HPM_P2
2021/11/04 00:00:51;;;;;;;14.90;13.80;;;7.90;99.90;;;;;;5143808;27;21010;-90
2021/11/04 00:03:20;;;;;;;14.37;13.27;;;8.00;99.90;;;;;;5139315;27;20620;-90
2021/11/04 00:05:48;;;;;;;14.40;13.27;;;8.00;99.90;;;;;;5146868;27;21230;-90
2021/11/04 00:08:14;;;;;;;15.63;14.23;;;7.90;99.90;;;;;;5145311;27;20732;-90
2021/11/04 00:10:43;;;;;;;18.13;14.00;;;7.90;99.90;;;;;;5148189;27;20663;-90
2021/11/04 00:13:11;;;;;;;13.73;12.60;;;7.80;99.90;;;;;;5146991;27;20628;-90
2021/11/04 00:15:39;;;;;;;15.83;14.70;;;7.70;99.90;;;;;;5143703;27;20748;-90
2021/11/04 00:18:10;;;;;;;14.93;13.73;;;7.80;99.90;;;;;;5147588;27;20609;-90
2021/11/04 00:20:37;;;;;;;14.03;13.03;;;7.80;99.90;;;;;;5143259;27;20700;-89
2021/11/04 00:23:04;;;;;;;14.33;13.33;;;7.80;99.90;;;;;;5144007;27;20860;-89
2021/11/04 00:25:32;;;;;;;14.37;13.23;;;7.70;99.90;;;;;;5128908;27;20652;-89
2021/11/04 00:28:00;;;;;;;15.43;14.13;;;7.80;99.90;;;;;;5143207;27;20808;-90
2021/11/04 00:30:29;;;;;;;14.93;13.53;;;7.70;99.90;;;;;;5143858;27;20744;-89
2021/11/04 00:32:56;;;;;;;13.80;12.60;;;7.70;99.90;;;;;;5140878;27;20633;-91
2021/11/04 00:35:24;;;;;;;13.50;12.50;;;7.70;99.90;;;;;;5145309;27;20617;-91
2021/11/04 00:37:51;;;;;;;14.27;13.17;;;7.80;99.90;;;;;;5146058;27;20700;-91
2021/11/04 00:40:20;;;;;;;15.10;13.90;;;7.70;99.90;;;;;;5145493;27;20653;-91
2021/11/04 00:42:47;;;;;;;14.67;13.40;;;7.70;99.90;;;;;;5145400;27;20831;-91
2021/11/04 00:45:17;;;;;;;14.40;13.40;;;7.70;99.90;;;;;;5148622;27;20666;-91
2021/11/04 00:47:44;;;;;;;13.77;12.77;;;7.70;99.90;;;;;;5133405;27;20621;-91
2021/11/04 00:50:15;;;;;;;12.27;11.37;;;7.70;99.90;;;;;;5137017;27;20658;-92
2021/11/04 00:52:42;;;;;;;13.30;12.20;;;7.70;99.90;;;;;;5149639;27;20585;-90
2021/11/04 00:55:10;;;;;;;11.87;10.97;;;7.70;99.90;;;;;;5147163;27;20717;-91
2021/11/04 00:57:38;;;;;;;12.40;11.50;;;7.80;99.90;;;;;;5151995;27;20581;-92
2021/11/04 01:00:11;;;;;;;12.00;11.00;;;7.80;99.90;;;;;;5150899;27;21254;-91
2021/11/04 01:02:41;;;;;;;9.57;8.87;;;7.90;99.90;;;;;;5151315;27;20628;-92
2021/11/04 01:05:09;;;;;;;10.53;9.63;;;8.00;99.90;;;;;;5148439;27;20649;-91
2021/11/04 01:07:36;;;;;;;10.60;9.60;;;7.90;99.90;;;;;;5146939;27;20625;-91
2021/11/04 01:10:04;;;;;;;10.90;10.00;;;7.90;99.90;;;;;;5151466;27;20656;-92
2021/11/04 01:12:33;;;;;;;9.93;9.33;;;8.00;99.90;;;;;;5152311;27;20633;-91
2021/11/04 01:14:59;;;;;;;9.47;8.77;;;7.90;99.90;;;;;;5163176;27;20641;-90
2021/11/04 01:17:28;;;;;;;9.17;8.40;;;7.90;99.90;;;;;;5162586;27;20625;-91
2021/11/04 01:19:56;;;;;;;8.43;7.83;;;7.90;99.90;;;;;;5162108;27;20655;-91
2021/11/04 01:22:23;;;;;;;7.93;7.23;;;8.00;99.90;;;;;;5158948;27;20660;-90
2021/11/04 01:24:49;;;;;;;6.63;6.13;;;8.00;99.90;;;;;;5159009;27;20657;-90
2021/11/04 01:27:16;;;;;;;5.37;5.00;;;8.00;99.90;;;;;;5156860;27;20633;-91
2021/11/04 01:29:43;;;;;;;5.90;5.40;;;8.10;99.90;;;;;;5147155;27;20787;-90
2021/11/04 01:32:11;;;;;;;5.13;4.80;;;8.10;99.90;;;;;;5147391;27;20621;-91
2021/11/04 01:34:38;;;;;;;5.57;5.10;;;8.10;99.90;;;;;;5143756;27;20642;-91
2021/11/04 01:37:06;;;;;;;6.77;4.90;;;8.10;99.90;;;;;;5146713;27;20961;-91
2021/11/04 01:39:33;;;;;;;5.77;5.37;;;8.10;99.90;;;;;;5149768;27;20966;-91
2021/11/04 01:42:00;;;;;;;4.27;3.97;;;8.10;99.90;;;;;;5146573;27;20986;-91
2021/11/04 01:44:29;;;;;;;4.13;3.83;;;8.00;99.90;;;;;;5145236;27;20656;-91
2021/11/04 01:46:56;;;;;;;5.00;4.60;;;8.10;99.90;;;;;;5144281;27;20621;-91
2021/11/04 01:49:24;;;;;;;5.17;4.77;;;8.00;99.90;;;;;;5146024;27;20994;-91
2021/11/04 01:51:51;;;;;;;4.40;4.10;;;8.10;99.90;;;;;;5143965;27;20630;-91
2021/11/04 01:54:20;;;;;;;4.67;4.37;;;8.10;99.90;;;;;;5143620;27;20578;-91
2021/11/04 01:56:47;;;;;;;3.67;3.37;;;8.20;99.90;;;;;;5146468;27;20636;-91
2021/11/04 01:59:14;;;;;;;2.77;2.57;;;8.10;99.90;;;;;;5147795;27;20625;-91
2021/11/04 02:01:41;;;;;;;1.90;1.80;;;8.30;99.90;;;;;;5145132;27;20613;-91
2021/11/04 02:04:17;;;;;;;2.60;2.23;;;8.30;99.90;;;;;;5125751;27;20973;-91
2021/11/04 02:06:49;;;;;;;2.23;1.90;;;8.30;99.90;;;;;;5129585;27;20635;-91
2021/11/04 02:09:23;;;;;;;2.00;1.40;;;8.40;99.90;;;;;;5138228;27;20685;-91
2021/11/04 02:11:53;;;;;;;3.07;2.70;;;8.30;99.90;;;;;;5112373;27;21163;-90
2021/11/04 02:14:24;;;;;;;1.97;1.80;;;8.30;99.90;;;;;;5146513;27;21250;-90
2021/11/04 02:16:53;;;;;;;1.60;1.50;;;8.10;99.90;;;;;;5143074;27;20613;-90
2021/11/04 02:19:25;;;;;;;1.80;1.70;;;8.10;99.90;;;;;;5147424;27;20603;-90
2021/11/04 02:21:57;;;;;;;2.10;1.77;;;8.10;99.90;;;;;;5144291;27;20621;-90
2021/11/04 02:24:37;;;;;;;1.60;1.50;;;8.10;99.90;;;;;;5145321;27;21217;-90
2021/11/04 02:27:11;;;;;;;2.03;1.93;;;8.00;99.90;;;;;;5143378;27;20636;-90
2021/11/04 02:29:40;;;;;;;2.17;2.00;;;7.90;99.90;;;;;;5145493;27;20763;-89
2021/11/04 02:32:08;;;;;;;2.20;2.10;;;7.80;99.90;;;;;;5158745;27;20629;-91
2021/11/04 02:34:36;;;;;;;2.00;1.80;;;7.80;99.90;;;;;;5167934;27;20626;-89
2021/11/04 02:37:05;;;;;;;1.83;1.73;;;7.70;99.90;;;;;;5166938;27;20620;-89
2021/11/04 02:39:33;;;;;;;2.43;2.30;;;7.70;99.90;;;;;;5148094;27;20649;-89
2021/11/04 02:42:00;;;;;;;2.13;2.03;;;7.60;99.90;;;;;;5149779;27;20617;-90
2021/11/04 02:44:29;;;;;;;2.40;2.20;;;7.60;99.90;;;;;;5146557;27;20570;-90
2021/11/04 02:46:57;;;;;;;2.13;2.03;;;7.50;99.90;;;;;;5146113;27;20717;-90
2021/11/04 02:49:26;;;;;;;1.90;1.80;;;7.50;99.90;;;;;;5145962;27;20963;-92
2021/11/04 02:51:53;;;;;;;2.27;2.17;;;7.50;99.90;;;;;;5146589;27;21178;-91
2021/11/04 02:54:20;;;;;;;2.43;2.23;;;7.50;99.90;;;;;;5137883;27;20625;-91
2021/11/04 02:56:49;;;;;;;2.60;2.40;;;7.50;99.90;;;;;;5144929;27;20629;-90
2021/11/04 02:59:18;;;;;;;2.17;2.03;;;7.50;99.90;;;;;;5144724;27;20641;-91
2021/11/04 03:01:50;;;;;;;2.40;2.30;;;7.50;99.90;;;;;;5144731;27;20667;-90
2021/11/04 03:04:19;;;;;;;2.50;2.40;;;7.50;99.90;;;;;;5144273;27;20622;-90
2021/11/04 03:06:47;;;;;;;2.60;2.40;;;7.50;99.90;;;;;;5142878;27;20653;-90
2021/11/04 03:09:16;;;;;;;2.53;2.43;;;7.40;99.90;;;;;;5139848;27;20635;-90
2021/11/04 03:11:45;;;;;;;2.60;2.50;;;7.40;99.90;;;;;;5140824;27;20635;-89
2021/11/04 03:14:12;;;;;;;2.27;1.93;;;7.30;99.90;;;;;;5144957;27;20614;-90
2021/11/04 03:16:41;;;;;;;2.63;2.53;;;7.30;99.90;;;;;;5143416;27;20641;-91
2021/11/04 03:19:13;;;;;;;3.10;2.90;;;7.30;99.90;;;;;;5145736;27;21168;-91
2021/11/04 03:21:45;;;;;;;2.80;2.70;;;7.30;99.90;;;;;;5122798;27;20605;-90
2021/11/04 03:24:13;;;;;;;2.53;2.33;;;7.20;99.90;;;;;;5140698;27;21238;-90
2021/11/04 03:26:43;;;;;;;2.40;2.30;;;7.20;99.90;;;;;;5145494;27;20657;-91
2021/11/04 03:29:13;;;;;;;3.00;2.90;;;7.20;99.90;;;;;;5144821;27;20649;-90
2021/11/04 03:31:43;;;;;;;2.60;2.50;;;7.20;99.90;;;;;;5139423;27;20731;-90
2021/11/04 03:34:12;;;;;;;2.40;2.30;;;7.10;99.90;;;;;;5139070;27;20574;-90
2021/11/04 03:36:42;;;;;;;2.30;2.20;;;7.10;99.90;;;;;;5137056;27;20620;-91
2021/11/04 03:39:09;;;;;;;2.13;2.03;;;7.10;99.90;;;;;;5143212;27;20618;-90
2021/11/04 03:41:37;;;;;;;2.10;2.00;;;7.10;99.90;;;;;;5136997;27;20706;-91
2021/11/04 03:44:05;;;;;;;5.20;2.17;;;7.20;99.90;;;;;;5139318;27;20658;-91
2021/11/04 03:46:32;;;;;;;2.10;2.00;;;7.10;99.90;;;;;;5141290;27;20702;-90
2021/11/04 03:49:00;;;;;;;2.27;2.17;;;7.10;99.90;;;;;;5139108;27;21209;-90
2021/11/04 03:51:32;;;;;;;2.10;2.00;;;7.10;99.90;;;;;;5138925;27;20659;-90
2021/11/04 03:54:00;;;;;;;1.70;1.60;;;7.10;99.90;;;;;;5142805;27;20657;-90
2021/11/04 03:56:27;;;;;;;1.50;1.40;;;7.00;99.90;;;;;;5138703;27;20732;-90
2021/11/04 03:58:55;;;;;;;2.60;1.13;;;7.00;99.90;;;;;;5142425;27;20639;-90
2021/11/04 04:01:23;;;;;;;1.37;1.23;;;7.00;99.90;;;;;;5139133;27;21122;-88
2021/11/04 04:03:52;;;;;;;1.10;1.00;;;6.90;99.90;;;;;;5140142;27;21004;-90
2021/11/04 04:06:22;;;;;;;0.83;0.80;;;7.00;99.90;;;;;;5138970;27;20761;-89
2021/11/04 04:08:52;;;;;;;0.93;0.60;;;6.90;99.90;;;;;;5142251;27;20622;-89
2021/11/04 04:11:39;;;;;;;0.87;0.70;;;6.90;99.90;;;;;;5137224;27;20648;-89
2021/11/04 04:14:06;;;;;;;0.70;0.70;;;6.90;99.90;;;;;;5137634;27;20626;-88
2021/11/04 04:16:36;;;;;;;0.70;0.70;;;6.90;99.90;;;;;;5143137;27;20633;-89
2021/11/04 04:19:02;;;;;;;1.60;0.80;;;6.90;99.90;;;;;;5129409;27;20627;-89
2021/11/04 04:21:29;;;;;;;0.80;0.80;;;7.00;99.90;;;;;;5148242;27;20644;-88
2021/11/04 04:23:58;;;;;;;0.80;0.73;;;7.00;99.90;;;;;;5141863;27;21199;-89
2021/11/04 04:26:24;;;;;;;0.73;0.73;;;7.00;99.90;;;;;;5145945;27;20656;-88
2021/11/04 04:28:51;;;;;;;0.90;0.73;;;7.00;99.90;;;;;;5142179;27;20620;-90
2021/11/04 04:31:18;;;;;;;1.00;0.70;;;7.00;99.90;;;;;;5146968;27;20993;-90
2021/11/04 04:33:45;;;;;;;1.17;0.80;;;7.00;99.90;;;;;;5145364;27;20661;-90
2021/11/04 04:36:12;;;;;;;1.00;0.77;;;7.00;99.90;;;;;;5147331;27;20806;-90
2021/11/04 04:38:39;;;;;;;0.80;0.80;;;7.10;99.90;;;;;;5127602;27;20632;-90
2021/11/04 04:41:08;;;;;;;0.83;0.83;;;7.10;99.90;;;;;;5149530;27;20636;-90
2021/11/04 04:43:34;;;;;;;0.70;0.70;;;7.00;99.90;;;;;;5151178;27;20683;-90
2021/11/04 04:46:02;;;;;;;1.20;0.63;;;7.00;99.90;;;;;;5147421;27;20760;-90
2021/11/04 04:48:29;;;;;;;0.93;0.80;;;6.90;99.90;;;;;;5147233;27;20667;-89
2021/11/04 04:50:56;;;;;;;3.37;1.40;;;7.00;99.90;;;;;;5148003;27;20677;-89
2021/11/04 04:53:23;;;;;;;0.97;0.87;;;7.00;99.90;;;;;;5145431;27;20659;-89
2021/11/04 04:55:49;;;;;;;1.40;1.30;;;7.00;99.90;;;;;;5149327;27;20585;-90
2021/11/04 04:58:18;;;;;;;1.80;1.10;;;7.00;99.90;;;;;;5152719;27;20624;-91
2021/11/04 05:00:44;;;;;;;0.90;0.90;;;7.00;99.90;;;;;;5148618;27;20686;-90
2021/11/04 05:03:11;;;;;;;2.07;1.87;;;7.00;99.90;;;;;;5144477;27;20689;-91
2021/11/04 05:05:38;;;;;;;1.87;1.77;;;7.00;99.90;;;;;;5141105;27;20653;-90
2021/11/04 05:08:05;;;;;;;2.10;2.00;;;7.00;99.90;;;;;;5138962;27;20617;-90
2021/11/04 05:10:32;;;;;;;1.73;1.40;;;7.00;99.90;;;;;;5143300;27;20625;-91
2021/11/04 05:12:59;;;;;;;1.93;1.50;;;7.00;99.90;;;;;;5145902;27;20661;-91
2021/11/04 05:15:27;;;;;;;1.87;1.77;;;7.10;99.90;;;;;;5144806;27;20631;-90
2021/11/04 05:17:54;;;;;;;1.63;1.50;;;7.00;99.90;;;;;;5146712;27;20625;-90
2021/11/04 05:20:21;;;;;;;1.57;1.47;;;7.00;99.90;;;;;;5150272;27;20621;-90
2021/11/04 05:22:48;;;;;;;1.70;1.30;;;7.10;99.90;;;;;;5148791;27;20804;-90
2021/11/04 05:25:15;;;;;;;1.53;1.43;;;7.20;99.90;;;;;;5150920;27;20961;-90
2021/11/04 05:27:47;;;;;;;2.10;1.90;;;7.10;99.90;;;;;;5157336;27;20629;-89
2021/11/04 05:30:16;;;;;;;2.03;1.33;;;7.10;99.90;;;;;;5155189;27;20647;-89
2021/11/04 05:32:46;;;;;;;1.20;1.20;;;7.00;99.90;;;;;;5152565;27;20683;-90
2021/11/04 05:35:15;;;;;;;1.57;1.47;;;7.00;99.90;;;;;;5160279;27;20675;-90
2021/11/04 05:37:42;;;;;;;1.60;1.50;;;6.90;99.90;;;;;;5152840;27;20613;-89
2021/11/04 05:40:10;;;;;;;1.97;1.83;;;7.00;99.90;;;;;;5155417;27;20625;-91
2021/11/04 05:42:36;;;;;;;1.60;1.50;;;6.90;99.90;;;;;;5149810;27;20699;-89
2021/11/04 05:45:05;;;;;;;1.40;1.30;;;6.80;99.90;;;;;;5147359;27;20740;-90
2021/11/04 05:47:32;;;;;;;1.33;1.23;;;6.70;99.90;;;;;;5145808;27;20666;-89
2021/11/04 05:50:02;;;;;;;2.10;1.90;;;6.80;99.90;;;;;;5144736;27;20621;-89
2021/11/04 05:52:29;;;;;;;2.37;2.20;;;6.80;99.90;;;;;;5141025;27;20740;-90
2021/11/04 05:54:57;;;;;;;1.60;1.50;;;6.80;99.90;;;;;;5141547;27;20644;-89
2021/11/04 05:57:24;;;;;;;2.80;2.60;;;6.80;99.90;;;;;;5131952;27;20701;-89
2021/11/04 05:59:51;;;;;;;4.47;2.40;;;6.80;99.90;;;;;;5129497;27;21032;-89
2021/11/04 06:02:20;;;;;;;1.50;1.40;;;6.80;99.90;;;;;;5141636;27;20628;-90
2021/11/04 06:04:48;;;;;;;2.07;1.60;;;6.80;99.90;;;;;;5141002;27;20635;-90
2021/11/04 06:07:17;;;;;;;1.90;1.80;;;6.90;99.90;;;;;;5140882;27;21332;-89
2021/11/04 06:09:44;;;;;;;2.00;1.40;;;6.80;99.90;;;;;;5147179;27;20604;-92
2021/11/04 06:12:11;;;;;;;3.10;1.70;;;6.70;99.90;;;;;;5145628;27;21129;-92
2021/11/04 06:14:52;;;;;;;1.60;1.50;;;6.70;99.90;;;;;;5143889;27;21394;-89
2021/11/04 06:17:19;;;;;;;1.50;1.40;;;6.80;99.90;;;;;;5143268;27;20629;-90
2021/11/04 06:19:48;;;;;;;1.80;1.70;;;6.80;99.90;;;;;;5146107;27;20709;-90
2021/11/04 06:22:17;;;;;;;1.63;1.53;;;6.80;99.90;;;;;;5141570;27;20725;-90
2021/11/04 06:24:45;;;;;;;2.93;2.73;;;6.80;99.90;;;;;;5145455;27;20644;-91
2021/11/04 06:27:12;;;;;;;2.27;2.10;;;6.80;99.90;;;;;;5147325;27;21009;-89
2021/11/04 06:29:38;;;;;;;5.67;5.10;;;6.90;99.90;;;;;;5147385;27;21199;-90
2021/11/04 06:32:08;;;;;;;2.43;2.30;;;6.80;99.90;;;;;;5147895;27;21020;-90
2021/11/04 06:34:35;;;;;;;3.50;3.20;;;6.70;99.90;;;;;;5146737;27;21202;-89
2021/11/04 06:37:02;;;;;;;2.50;2.30;;;6.70;99.90;;;;;;5158366;27;20629;-90
2021/11/04 06:39:30;;;;;;;3.50;3.20;;;6.80;99.90;;;;;;5161678;27;20605;-90
2021/11/04 06:41:57;;;;;;;2.90;2.70;;;6.80;99.90;;;;;;5143523;27;20729;-90
2021/11/04 06:44:23;;;;;;;2.33;2.23;;;6.90;99.90;;;;;;5140713;27;20748;-90
2021/11/04 06:46:51;;;;;;;2.00;1.90;;;6.90;99.90;;;;;;5143371;27;20658;-90
2021/11/04 06:49:19;;;;;;;2.27;2.17;;;6.80;99.90;;;;;;5148984;27;20622;-90
2021/11/04 06:51:49;;;;;;;5.40;5.07;;;6.80;99.90;;;;;;5146330;27;20644;-90
2021/11/04 06:54:18;;;;;;;2.23;2.13;;;6.80;99.90;;;;;;5138362;27;20664;-91
2021/11/04 06:56:48;;;;;;;2.10;1.90;;;6.70;99.90;;;;;;5147063;27;20678;-90
2021/11/04 06:59:19;;;;;;;1.43;1.33;;;6.70;99.90;;;;;;5145538;27;20633;-90
2021/11/04 07:01:51;;;;;;;2.07;1.70;;;6.80;99.90;;;;;;5143251;27;20689;-91
2021/11/04 07:04:27;;;;;;;1.57;1.47;;;6.70;99.90;;;;;;5145254;27;20671;-90
2021/11/04 07:07:15;;;;;;;1.90;1.63;;;6.80;99.90;;;;;;5123203;27;20796;-89
2021/11/04 07:09:43;;;;;;;1.90;1.80;;;6.80;99.90;;;;;;5126194;27;20681;-90
2021/11/04 07:12:13;;;;;;;1.87;1.77;;;6.80;99.90;;;;;;5132551;27;20682;-91
2021/11/04 07:14:42;;;;;;;1.83;1.73;;;6.80;99.90;;;;;;5128728;27;20792;-91
2021/11/04 07:17:11;;;;;;;2.73;2.53;;;6.80;99.90;;;;;;5129200;27;21214;-90
2021/11/04 07:19:38;;;;;;;2.33;2.23;;;6.80;99.90;;;;;;5129605;27;20671;-90
2021/11/04 07:22:21;;;;;;;2.10;2.00;;;6.90;99.90;;;;;;5132835;27;20643;-90
2021/11/04 07:24:54;;;;;;;2.47;2.10;;;7.00;99.90;;;;;;5127118;27;20858;-91
2021/11/04 07:27:32;;;;;;;2.80;2.60;;;6.90;99.90;;;;;;5122360;27;20665;-90
2021/11/04 07:30:03;;;;;;;2.00;1.90;;;6.90;99.90;;;;;;5125351;27;20657;-91
2021/11/04 07:32:32;;;;;;;3.50;3.30;;;6.90;99.90;;;;;;5132882;27;21223;-90
2021/11/04 07:35:00;;;;;;;5.60;5.20;;;7.20;99.90;;;;;;5119961;27;20665;-90
2021/11/04 07:37:32;;;;;;;4.40;4.00;;;7.10;99.90;;;;;;5126279;27;20683;-90
2021/11/04 07:40:00;;;;;;;2.03;1.90;;;7.10;99.90;;;;;;5129858;27;21217;-90
2021/11/04 07:42:28;;;;;;;1.97;1.87;;;7.10;99.90;;;;;;5130620;27;21362;-90
2021/11/04 07:44:57;;;;;;;2.20;2.10;;;7.10;99.90;;;;;;5129250;27;21727;-91
2021/11/04 07:47:31;;;;;;;2.30;2.10;;;7.10;99.90;;;;;;5125307;27;20670;-91
2021/11/04 07:52:41;;;;;;;3.27;3.07;;;7.00;99.90;;;;;;5126507;27;21264;-90
2021/11/04 07:55:12;;;;;;;2.10;2.00;;;7.00;99.90;;;;;;5123986;27;20760;-90
2021/11/04 07:57:42;;;;;;;1.57;1.47;;;7.00;99.90;;;;;;5127751;27;20676;-90
2021/11/04 08:00:13;;;;;;;1.90;1.80;;;7.10;99.90;;;;;;5151075;27;20631;-89
2021/11/04 08:02:43;;;;;;;1.80;1.70;;;7.10;99.90;;;;;;5151846;27;20646;-89
2021/11/04 08:05:13;;;;;;;4.10;2.20;;;7.20;99.90;;;;;;5134009;27;20932;-91
2021/11/04 08:07:41;;;;;;;2.00;1.90;;;7.20;99.90;;;;;;5124228;27;21033;-92
2021/11/04 08:10:09;;;;;;;2.87;2.67;;;7.30;99.90;;;;;;5142091;27;20772;-91
2021/11/04 08:12:36;;;;;;;7.57;2.60;;;7.30;99.90;;;;;;5145315;27;20624;-91
2021/11/04 08:15:07;;;;;;;4.60;3.63;;;7.40;99.90;;;;;;5145027;27;21185;-92
2021/11/04 08:17:34;;;;;;;3.37;3.07;;;7.40;99.90;;;;;;5141334;27;20621;-92
2021/11/04 08:20:01;;;;;;;3.30;3.10;;;7.40;99.90;;;;;;5145394;27;20656;-91
2021/11/04 08:22:29;;;;;;;3.20;3.00;;;7.40;99.90;;;;;;5143565;27;20667;-93
2021/11/04 08:24:56;;;;;;;3.00;2.70;;;7.30;99.90;;;;;;5146797;27;20640;-91
2021/11/04 08:27:23;;;;;;;2.57;2.37;;;7.30;99.90;;;;;;5145996;27;20683;-91
2021/11/04 08:29:50;;;;;;;2.23;2.03;;;7.20;99.90;;;;;;5145846;27;20671;-92
2021/11/04 08:32:18;;;;;;;2.90;2.60;;;7.10;99.90;;;;;;5144127;27;20651;-92
2021/11/04 08:34:46;;;;;;;1.80;1.70;;;7.30;99.90;;;;;;5143914;27;20723;-92
2021/11/04 08:37:13;;;;;;;2.20;2.10;;;7.30;99.90;;;;;;5143916;27;20656;-91
2021/11/04 08:39:41;;;;;;;2.00;1.90;;;7.20;99.90;;;;;;5143544;27;20728;-91
2021/11/04 08:42:12;;;;;;;3.20;2.43;;;7.20;99.90;;;;;;5146260;27;21238;-91
2021/11/04 08:44:39;;;;;;;2.47;2.23;;;7.20;99.90;;;;;;5144045;27;21160;-91
2021/11/04 08:47:08;;;;;;;2.50;2.30;;;7.30;99.90;;;;;;5146878;27;20660;-91
2021/11/04 08:49:37;;;;;;;2.80;2.60;;;7.20;99.90;;;;;;5142627;27;21217;-92
2021/11/04 08:52:05;;;;;;;3.27;2.97;;;7.20;99.90;;;;;;5137205;27;20744;-91
2021/11/04 08:54:32;;;;;;;2.40;2.20;;;7.20;99.90;;;;;;5140140;27;21557;-91
2021/11/04 08:56:59;;;;;;;4.70;2.20;;;7.20;99.90;;;;;;5141982;27;21050;-91
2021/11/04 08:59:26;;;;;;;2.97;2.77;;;7.20;99.90;;;;;;5134768;27;20626;-91
2021/11/04 09:01:57;;;;;;;2.30;2.10;;;7.20;99.90;;;;;;5140804;27;21015;-92
2021/11/04 09:04:24;;;;;;;2.20;2.10;;;7.20;99.90;;;;;;5145321;27;21053;-92
2021/11/04 09:06:53;;;;;;;2.63;2.43;;;7.10;99.90;;;;;;5148606;27;21195;-91
2021/11/04 09:09:23;;;;;;;2.33;2.13;;;7.10;99.90;;;;;;5148676;27;20732;-91
2021/11/04 09:11:53;;;;;;;2.20;1.97;;;7.20;99.90;;;;;;5146684;27;20623;-91
2021/11/04 09:14:20;;;;;;;2.70;2.50;;;7.30;99.90;;;;;;5146674;27;20723;-91
2021/11/04 09:16:47;;;;;;;2.93;2.73;;;7.30;99.90;;;;;;5148700;27;20598;-90
2021/11/04 09:19:14;;;;;;;3.10;2.90;;;7.30;99.90;;;;;;5144662;27;20697;-91
2021/11/04 09:21:40;;;;;;;3.40;3.20;;;7.40;99.90;;;;;;5149732;27;20941;-91
2021/11/04 09:24:09;;;;;;;4.17;2.97;;;7.50;99.90;;;;;;5145594;27;20706;-91
2021/11/04 09:26:40;;;;;;;2.60;2.40;;;7.40;99.90;;;;;;5150444;27;20656;-92
2021/11/04 09:29:07;;;;;;;3.10;2.90;;;7.50;99.90;;;;;;5157314;27;20656;-92
2021/11/04 09:31:35;;;;;;;3.03;2.70;;;7.50;99.90;;;;;;5157335;27;20729;-93
2021/11/04 09:34:03;;;;;;;3.07;2.70;;;7.40;99.90;;;;;;5157958;27;20640;-93
2021/11/04 09:36:32;;;;;;;3.20;3.00;;;7.40;99.90;;;;;;5166186;27;20576;-94
2021/11/04 09:39:02;;;;;;;4.20;3.60;;;7.60;99.90;;;;;;5168214;27;20634;-94
2021/11/04 09:41:34;;;;;;;2.57;2.37;;;7.60;99.90;;;;;;5169389;27;20652;-93
2021/11/04 09:44:03;;;;;;;2.63;2.43;;;7.60;99.90;;;;;;5164782;27;20767;-93
2021/11/04 09:46:31;;;;;;;2.50;2.30;;;7.50;99.90;;;;;;5155670;27;20705;-95
2021/11/04 09:48:59;;;;;;;2.50;2.30;;;7.30;99.90;;;;;;5151290;27;20617;-93
2021/11/04 09:51:26;;;;;;;3.03;2.73;;;7.40;99.90;;;;;;5146969;27;20689;-94
2021/11/04 09:53:54;;;;;;;3.90;2.50;;;7.40;99.90;;;;;;5143538;27;20655;-94
2021/11/04 09:56:33;;;;;;;2.03;1.93;;;7.50;99.90;;;;;;5155054;27;20739;-93
2021/11/04 09:59:03;;;;;;;2.47;1.90;;;7.50;99.90;;;;;;5151711;27;20651;-94
2021/11/04 10:01:34;;;;;;;3.33;2.53;;;7.50;99.90;;;;;;5146570;27;20765;-93
2021/11/04 10:04:03;;;;;;;3.00;2.40;;;7.40;99.90;;;;;;5149960;27;20632;-92
2021/11/04 10:06:32;;;;;;;2.77;2.00;;;7.50;99.90;;;;;;5147651;27;20724;-91
2021/11/04 10:09:02;;;;;;;2.77;2.20;;;7.50;99.90;;;;;;5147435;27;20655;-93
2021/11/04 10:11:33;;;;;;;2.23;2.03;;;7.50;99.90;;;;;;5142359;27;21238;-92
2021/11/04 10:14:04;;;;;;;1.53;1.30;;;7.30;99.90;;;;;;5145211;27;21067;-92
2021/11/04 10:16:34;;;;;;;1.90;1.70;;;7.30;99.90;;;;;;5147437;27;21024;-92
2021/11/04 10:19:09;;;;;;;1.10;1.00;;;7.30;99.90;;;;;;5146933;27;20669;-93
2021/11/04 10:21:40;;;;;;;1.47;1.10;;;7.20;99.90;;;;;;5144881;27;20661;-93
2021/11/04 10:24:14;;;;;;;1.93;1.53;;;7.20;99.90;;;;;;5148726;27;21191;-92
2021/11/04 10:26:42;;;;;;;1.40;1.07;;;7.30;99.90;;;;;;5147871;27;20678;-92
2021/11/04 10:29:12;;;;;;;0.83;0.83;;;7.20;99.90;;;;;;5147885;27;21003;-93
2021/11/04 10:31:43;;;;;;;1.27;1.07;;;7.20;99.90;;;;;;5151344;27;20869;-94
2021/11/04 10:34:14;;;;;;;2.03;0.90;;;7.30;99.90;;;;;;5164506;27;20651;-93
2021/11/04 10:36:44;;;;;;;1.27;1.17;;;7.20;99.90;;;;;;5176347;27;20653;-93
2021/11/04 10:39:13;;;;;;;1.97;0.90;;;7.20;99.90;;;;;;5171731;27;20649;-95
2021/11/04 10:41:44;;;;;;;1.47;1.37;;;7.30;99.90;;;;;;5155352;27;20775;-94
2021/11/04 10:44:15;;;;;;;2.00;1.20;;;7.30;99.90;;;;;;5150252;27;20633;-93
2021/11/04 10:46:46;;;;;;;1.30;1.07;;;7.40;99.90;;;;;;5152583;27;20702;-95
2021/11/04 10:49:15;;;;;;;1.10;0.70;;;7.40;99.90;;;;;;5150120;27;22307;-94
2021/11/04 10:51:42;;;;;;;1.67;1.03;;;7.40;99.90;;;;;;5149418;27;20637;-93
2021/11/04 10:54:13;;;;;;;0.90;0.90;;;7.50;99.90;;;;;;5145810;27;20670;-93
2021/11/04 10:56:43;;;;;;;3.20;1.53;;;7.40;99.90;;;;;;5147627;27;20728;-93
2021/11/04 10:59:13;;;;;;;1.60;1.50;;;7.40;99.90;;;;;;5148676;27;20629;-94
2021/11/04 11:01:42;;;;;;;2.10;1.90;;;7.50;99.90;;;;;;5144982;27;20640;-93
2021/11/04 11:04:11;;;;;;;1.70;1.60;;;7.50;99.90;;;;;;5145982;27;20981;-93
2021/11/04 11:06:41;;;;;;;1.77;1.60;;;7.50;99.90;;;;;;5142803;27;20686;-92
2021/11/04 11:09:12;;;;;;;1.67;1.57;;;7.50;99.90;;;;;;5141808;27;20990;-92
2021/11/04 11:11:42;;;;;;;2.90;1.43;;;7.60;99.90;;;;;;5143939;27;20660;-91
2021/11/04 11:14:20;;;;;;;1.60;1.50;;;7.60;99.90;;;;;;5146160;27;21232;-92
2021/11/04 11:16:51;;;;;;;1.30;1.13;;;7.70;99.90;;;;;;5139567;27;20665;-91
2021/11/04 11:19:22;;;;;;;1.30;1.20;;;7.70;99.90;;;;;;5151118;27;20661;-92
2021/11/04 11:21:51;;;;;;;12.33;1.70;;;7.70;99.90;;;;;;5149787;27;21030;-91
2021/11/04 11:24:23;;;;;;;1.57;1.47;;;7.70;99.90;;;;;;5143884;27;20660;-91
2021/11/04 11:26:53;;;;;;;1.60;1.50;;;7.80;99.90;;;;;;5141832;27;21288;-92
2021/11/04 11:29:22;;;;;;;2.93;2.70;;;7.80;99.90;;;;;;5159386;27;20752;-90
2021/11/04 11:31:51;;;;;;;1.93;1.80;;;7.70;99.90;;;;;;5161200;27;20617;-92
2021/11/04 11:34:29;;;;;;;2.17;1.97;;;7.70;99.90;;;;;;5144871;27;20631;-91
2021/11/04 11:37:18;;;;;;;1.90;1.80;;;7.60;99.90;;;;;;5142844;27;20639;-92
2021/11/04 11:39:48;;;;;;;2.90;2.10;;;7.60;99.90;;;;;;5142705;27;20654;-92
2021/11/04 11:42:18;;;;;;;2.50;2.30;;;7.60;99.90;;;;;;5142099;27;20632;-91
2021/11/04 11:44:54;;;;;;;2.30;1.90;;;7.60;99.90;;;;;;5157439;27;20598;-91
2021/11/04 11:47:23;;;;;;;3.20;2.70;;;7.50;99.90;;;;;;5145765;27;20685;-92
2021/11/04 11:50:19;;;;;;;5.00;4.50;;;7.50;99.90;;;;;;5145375;27;20684;-92
2021/11/04 11:52:49;;;;;;;4.50;4.10;;;7.60;99.90;;;;;;5137551;27;20656;-91
2021/11/04 11:55:17;;;;;;;4.50;4.10;;;7.50;99.90;;;;;;5140767;27;20728;-92
2021/11/04 11:58:17;;;;;;;3.67;3.37;;;7.50;99.90;;;;;;5143344;27;20685;-93
2021/11/04 12:01:02;;;;;;;5.67;5.17;;;7.50;99.90;;;;;;5141776;27;20661;-92
2021/11/04 12:03:46;;;;;;;3.57;2.80;;;7.60;99.90;;;;;;5144368;27;20647;-92
2021/11/04 12:06:49;;;;;;;3.73;3.43;;;7.60;99.90;;;;;;5141158;27;20676;-93
2021/11/04 12:09:46;;;;;;;4.03;3.73;;;7.50;99.90;;;;;;5053089;28;20661;-92
2021/11/04 12:12:44;;;;;;;4.00;3.70;;;7.60;99.90;;;;;;5048054;28;23293;-92
2021/11/04 12:15:11;;;;;;;4.23;3.83;;;7.60;99.90;;;;;;5131901;27;21000;-92
2021/11/04 12:17:38;;;;;;;4.23;3.77;;;7.70;99.90;;;;;;5142338;27;20715;-92
2021/11/04 12:20:05;;;;;;;4.73;4.33;;;7.80;99.90;;;;;;5145471;27;20953;-92
2021/11/04 12:22:38;;;;;;;4.70;4.30;;;7.80;99.90;;;;;;5141337;27;20990;-92
2021/11/04 12:25:08;;;;;;;8.00;7.40;;;7.90;99.90;;;;;;5143185;27;20661;-92
2021/11/04 12:27:37;;;;;;;10.67;9.67;;;7.90;99.90;;;;;;5148182;27;20637;-92
2021/11/04 12:30:20;;;;;;;8.30;7.27;;;7.90;99.90;;;;;;5125962;27;20657;-92
2021/11/04 12:32:58;;;;;;;7.43;6.83;;;7.90;99.90;;;;;;5144025;27;20657;-93
2021/11/04 12:35:26;;;;;;;5.97;5.47;;;7.90;99.90;;;;;;5145054;27;20971;-94
2021/11/04 12:37:59;;;;;;;4.80;4.50;;;8.00;99.90;;;;;;5143198;27;20704;-92
2021/11/04 12:40:27;;;;;;;4.90;4.60;;;8.00;99.90;;;;;;5143896;27;20728;-92
2021/11/04 12:42:57;;;;;;;5.13;4.70;;;8.10;99.90;;;;;;5148753;27;20737;-92
2021/11/04 12:45:26;;;;;;;5.70;5.30;;;8.10;99.90;;;;;;5148585;27;21162;-93
2021/11/04 12:48:04;;;;;;;5.23;4.93;;;8.20;99.90;;;;;;5149402;27;20660;-92
2021/11/04 12:50:33;;;;;;;5.83;5.33;;;8.20;99.90;;;;;;5151676;27;20680;-93
2021/11/04 12:53:08;;;;;;;7.50;6.70;;;8.20;99.90;;;;;;5151468;27;20713;-93
2021/11/04 12:55:35;;;;;;;5.10;4.70;;;8.40;99.90;;;;;;5143392;27;20649;-92
2021/11/04 12:58:05;;;;;;;5.20;4.80;;;8.40;99.90;;;;;;5149752;27;21272;-93
2021/11/04 13:00:36;;;;;;;5.70;5.20;;;8.30;99.90;;;;;;5151338;27;20667;-93
2021/11/04 13:03:04;;;;;;;5.10;4.70;;;8.30;99.90;;;;;;5150581;27;20635;-92
2021/11/04 13:05:37;;;;;;;5.10;4.70;;;8.30;99.90;;;;;;5149322;27;20743;-92
2021/11/04 13:08:08;;;;;;;5.70;5.30;;;8.20;99.90;;;;;;5149060;27;21258;-93
2021/11/04 13:10:38;;;;;;;4.80;4.40;;;8.20;99.90;;;;;;5150577;27;20664;-91